This is the latest recevied weather packets stored in our database for station/object CE3RCJ-14. If no packets are shown the sender has not sent any weather packets the latest 10 day(s).
| Time | Temp. | Humidity | Pressure | Rain* | Wind** | Luminosity | Snow |
|---|---|---|---|---|---|---|---|
| 1777765382 | 17.22° C | 42% | 1017.2 hPa | - | - | - | - |
| 1777764497 | 17.78° C | 42% | 1016.8 hPa | - | - | - | - |
| 1777762998 | 17.78° C | 41% | 1016.4 hPa | - | - | - | - |
| 1777761798 | 18.33° C | 41% | 1016.3 hPa | - | - | - | - |
| 1777759383 | 18.89° C | 40% | 1016 hPa | - | - | - | - |
| 1777756685 | 20° C | 38% | 1014.9 hPa | - | - | - | - |
| 1777755785 | 20° C | 38% | 1014.8 hPa | - | - | - | - |
| 1777754886 | 20° C | 39% | 1014.6 hPa | - | - | - | - |
| 1777754301 | 20° C | 39% | 1014.7 hPa | - | - | - | - |
| 1777752481 | 21.11° C | 38% | 1014.5 hPa | - | - | - | - |
| 1777750683 | 21.11° C | 38% | 1014.4 hPa | - | - | - | - |
| 1777749182 | 20.56° C | 39% | 1014.4 hPa | - | - | - | - |
| 1777748582 | 21.11° C | 40% | 1014.4 hPa | - | - | - | - |
| 1777748284 | 20.56° C | 40% | 1014.5 hPa | - | - | - | - |
| 1777746197 | 20.56° C | 41% | 1014.4 hPa | - | - | - | - |
| 1777745297 | 20.56° C | 41% | 1014.6 hPa | - | - | - | - |
| 1777743788 | 20.56° C | 42% | 1014.7 hPa | - | - | - | - |
| 1777743485 | 20.56° C | 42% | 1014.7 hPa | - | - | - | - |
| 1777743182 | 20° C | 42% | 1014.7 hPa | - | - | - | - |
| 1777739882 | 19.44° C | 44% | 1015.4 hPa | - | - | - | - |
| 1777739582 | 19.44° C | 44% | 1015.5 hPa | - | - | - | - |
| 1777738982 | 18.89° C | 44% | 1015.7 hPa | - | - | - | - |
| 1777738397 | 18.89° C | 45% | 1015.9 hPa | - | - | - | - |
| 1777736899 | 18.33° C | 45% | 1016.3 hPa | - | - | - | - |
| 1777735689 | 17.22° C | 47% | 1016.8 hPa | - | - | - | - |
* Rain since midnight (hover to see other rain measurements)
** Current wind speed in m/s (hover to see current wind gust speed)